sensor_id;sensor_type;location;lat;lon;timestamp;P1;durP1;ratioP1;P2;durP2;ratioP2
8964;SDS011;4517;49.020;12.066;2022-12-29T00:01:35;18.73;;;13.80;;
8964;SDS011;4517;49.020;12.066;2022-12-29T00:04:01;16.80;;;14.33;;
8964;SDS011;4517;49.020;12.066;2022-12-29T00:06:28;15.60;;;13.00;;
8964;SDS011;4517;49.020;12.066;2022-12-29T00:08:54;17.00;;;14.30;;
8964;SDS011;4517;49.020;12.066;2022-12-29T00:11:21;17.73;;;12.47;;
8964;SDS011;4517;49.020;12.066;2022-12-29T00:13:49;14.37;;;12.43;;
8964;SDS011;4517;49.020;12.066;2022-12-29T00:16:35;22.33;;;14.13;;
8964;SDS011;4517;49.020;12.066;2022-12-29T00:19:01;14.20;;;12.80;;
8964;SDS011;4517;49.020;12.066;2022-12-29T00:21:27;16.00;;;12.90;;
8964;SDS011;4517;49.020;12.066;2022-12-29T00:24:17;15.40;;;12.30;;
8964;SDS011;4517;49.020;12.066;2022-12-29T00:26:56;16.13;;;11.90;;
8964;SDS011;4517;49.020;12.066;2022-12-29T00:29:50;16.30;;;13.23;;
8964;SDS011;4517;49.020;12.066;2022-12-29T00:32:35;18.80;;;12.80;;
8964;SDS011;4517;49.020;12.066;2022-12-29T00:35:29;13.23;;;11.80;;
8964;SDS011;4517;49.020;12.066;2022-12-29T00:37:59;12.17;;;10.97;;
8964;SDS011;4517;49.020;12.066;2022-12-29T00:40:47;14.27;;;12.20;;
8964;SDS011;4517;49.020;12.066;2022-12-29T00:43:31;15.20;;;13.60;;
8964;SDS011;4517;49.020;12.066;2022-12-29T00:46:15;16.90;;;12.70;;
8964;SDS011;4517;49.020;12.066;2022-12-29T00:48:40;14.43;;;12.10;;
8964;SDS011;4517;49.020;12.066;2022-12-29T00:51:24;20.87;;;12.80;;
8964;SDS011;4517;49.020;12.066;2022-12-29T00:53:50;15.13;;;13.30;;
8964;SDS011;4517;49.020;12.066;2022-12-29T00:56:15;17.93;;;13.40;;
8964;SDS011;4517;49.020;12.066;2022-12-29T00:58:41;16.30;;;13.10;;
8964;SDS011;4517;49.020;12.066;2022-12-29T01:01:07;13.80;;;12.20;;
8964;SDS011;4517;49.020;12.066;2022-12-29T01:03:34;18.47;;;12.50;;
8964;SDS011;4517;49.020;12.066;2022-12-29T01:06:01;14.73;;;13.23;;
8964;SDS011;4517;49.020;12.066;2022-12-29T01:08:31;13.23;;;11.80;;
8964;SDS011;4517;49.020;12.066;2022-12-29T01:11:00;17.03;;;12.43;;
8964;SDS011;4517;49.020;12.066;2022-12-29T01:13:31;17.03;;;12.90;;
8964;SDS011;4517;49.020;12.066;2022-12-29T01:15:57;13.33;;;11.60;;
8964;SDS011;4517;49.020;12.066;2022-12-29T01:18:23;14.50;;;11.20;;
8964;SDS011;4517;49.020;12.066;2022-12-29T01:20:49;17.43;;;12.80;;
8964;SDS011;4517;49.020;12.066;2022-12-29T01:23:15;16.70;;;12.40;;
8964;SDS011;4517;49.020;12.066;2022-12-29T01:25:41;15.37;;;13.77;;
8964;SDS011;4517;49.020;12.066;2022-12-29T01:28:06;13.53;;;11.30;;
8964;SDS011;4517;49.020;12.066;2022-12-29T01:30:35;13.07;;;11.63;;
8964;SDS011;4517;49.020;12.066;2022-12-29T01:33:00;15.10;;;11.37;;
8964;SDS011;4517;49.020;12.066;2022-12-29T01:35:26;13.30;;;11.47;;
8964;SDS011;4517;49.020;12.066;2022-12-29T01:37:52;15.80;;;12.20;;
8964;SDS011;4517;49.020;12.066;2022-12-29T01:40:17;12.70;;;11.30;;
8964;SDS011;4517;49.020;12.066;2022-12-29T01:42:43;12.70;;;11.10;;
8964;SDS011;4517;49.020;12.066;2022-12-29T01:45:09;15.13;;;12.00;;
8964;SDS011;4517;49.020;12.066;2022-12-29T01:47:41;12.20;;;10.90;;
8964;SDS011;4517;49.020;12.066;2022-12-29T01:50:28;13.30;;;11.00;;
8964;SDS011;4517;49.020;12.066;2022-12-29T01:55:59;12.90;;;11.60;;
8964;SDS011;4517;49.020;12.066;2022-12-29T01:58:30;17.00;;;12.00;;
8964;SDS011;4517;49.020;12.066;2022-12-29T02:00:59;17.17;;;11.30;;
8964;SDS011;4517;49.020;12.066;2022-12-29T02:03:25;12.80;;;11.47;;
8964;SDS011;4517;49.020;12.066;2022-12-29T02:08:20;12.27;;;10.97;;
8964;SDS011;4517;49.020;12.066;2022-12-29T02:10:48;12.03;;;10.30;;
8964;SDS011;4517;49.020;12.066;2022-12-29T02:13:17;13.10;;;11.80;;
8964;SDS011;4517;49.020;12.066;2022-12-29T02:29:51;13.63;;;11.17;;
8964;SDS011;4517;49.020;12.066;2022-12-29T02:35:39;15.53;;;10.90;;
8964;SDS011;4517;49.020;12.066;2022-12-29T02:43:38;12.30;;;11.07;;
8964;SDS011;4517;49.020;12.066;2022-12-29T02:46:11;12.47;;;11.17;;
8964;SDS011;4517;49.020;12.066;2022-12-29T02:49:08;13.63;;;11.37;;
8964;SDS011;4517;49.020;12.066;2022-12-29T02:54:32;12.67;;;10.20;;
8964;SDS011;4517;49.020;12.066;2022-12-29T02:59:50;12.60;;;11.30;;
8964;SDS011;4517;49.020;12.066;2022-12-29T03:02:27;11.43;;;10.40;;
8964;SDS011;4517;49.020;12.066;2022-12-29T03:10:59;12.53;;;11.23;;
8964;SDS011;4517;49.020;12.066;2022-12-29T03:14:02;12.50;;;11.20;;
8964;SDS011;4517;49.020;12.066;2022-12-29T03:16:57;12.20;;;10.77;;
8964;SDS011;4517;49.020;12.066;2022-12-29T03:19:31;13.80;;;11.10;;
8964;SDS011;4517;49.020;12.066;2022-12-29T03:22:22;13.07;;;10.93;;
8964;SDS011;4517;49.020;12.066;2022-12-29T03:27:38;12.83;;;11.57;;
8964;SDS011;4517;49.020;12.066;2022-12-29T03:30:08;10.83;;;9.83;;
8964;SDS011;4517;49.020;12.066;2022-12-29T03:32:39;12.77;;;10.03;;
8964;SDS011;4517;49.020;12.066;2022-12-29T03:35:12;13.10;;;10.03;;
8964;SDS011;4517;49.020;12.066;2022-12-29T03:37:42;12.90;;;10.70;;
8964;SDS011;4517;49.020;12.066;2022-12-29T03:40:28;11.23;;;10.10;;
8964;SDS011;4517;49.020;12.066;2022-12-29T03:42:55;10.90;;;9.80;;
8964;SDS011;4517;49.020;12.066;2022-12-29T03:45:22;13.00;;;11.57;;
8964;SDS011;4517;49.020;12.066;2022-12-29T03:47:47;12.90;;;10.10;;
8964;SDS011;4517;49.020;12.066;2022-12-29T03:50:13;12.13;;;10.77;;
8964;SDS011;4517;49.020;12.066;2022-12-29T03:52:39;11.00;;;10.00;;
8964;SDS011;4517;49.020;12.066;2022-12-29T03:55:04;10.60;;;9.50;;
8964;SDS011;4517;49.020;12.066;2022-12-29T03:57:30;11.17;;;10.07;;
8964;SDS011;4517;49.020;12.066;2022-12-29T03:59:56;11.70;;;10.53;;
8964;SDS011;4517;49.020;12.066;2022-12-29T04:02:21;11.07;;;9.93;;
8964;SDS011;4517;49.020;12.066;2022-12-29T04:04:47;10.90;;;10.00;;
8964;SDS011;4517;49.020;12.066;2022-12-29T04:07:12;11.13;;;10.10;;
8964;SDS011;4517;49.020;12.066;2022-12-29T04:09:38;11.57;;;10.40;;
8964;SDS011;4517;49.020;12.066;2022-12-29T04:12:03;11.33;;;10.20;;
8964;SDS011;4517;49.020;12.066;2022-12-29T04:14:29;14.80;;;10.37;;
8964;SDS011;4517;49.020;12.066;2022-12-29T04:16:55;11.77;;;10.63;;
8964;SDS011;4517;49.020;12.066;2022-12-29T04:19:20;13.97;;;10.17;;
8964;SDS011;4517;49.020;12.066;2022-12-29T04:21:46;11.77;;;10.00;;
8964;SDS011;4517;49.020;12.066;2022-12-29T04:24:11;12.77;;;10.40;;
8964;SDS011;4517;49.020;12.066;2022-12-29T04:26:37;11.20;;;10.00;;
8964;SDS011;4517;49.020;12.066;2022-12-29T04:29:03;11.27;;;9.63;;
8964;SDS011;4517;49.020;12.066;2022-12-29T04:31:29;11.07;;;9.87;;
8964;SDS011;4517;49.020;12.066;2022-12-29T04:33:54;10.87;;;9.73;;
8964;SDS011;4517;49.020;12.066;2022-12-29T04:36:22;14.33;;;9.17;;
8964;SDS011;4517;49.020;12.066;2022-12-29T04:38:48;11.93;;;10.73;;
8964;SDS011;4517;49.020;12.066;2022-12-29T04:41:13;13.90;;;10.87;;
8964;SDS011;4517;49.020;12.066;2022-12-29T04:43:39;11.27;;;10.27;;
8964;SDS011;4517;49.020;12.066;2022-12-29T04:46:05;12.37;;;10.70;;
8964;SDS011;4517;49.020;12.066;2022-12-29T04:48:30;12.50;;;11.30;;
8964;SDS011;4517;49.020;12.066;2022-12-29T04:50:56;12.60;;;10.33;;
8964;SDS011;4517;49.020;12.066;2022-12-29T04:53:21;12.37;;;11.07;;
8964;SDS011;4517;49.020;12.066;2022-12-29T04:55:51;10.23;;;9.13;;
8964;SDS011;4517;49.020;12.066;2022-12-29T04:58:17;11.87;;;10.00;;
8964;SDS011;4517;49.020;12.066;2022-12-29T05:00:44;11.53;;;10.30;;
8964;SDS011;4517;49.020;12.066;2022-12-29T05:03:09;11.07;;;9.70;;
8964;SDS011;4517;49.020;12.066;2022-12-29T05:05:35;11.43;;;10.50;;
8964;SDS011;4517;49.020;12.066;2022-12-29T05:08:00;12.50;;;11.30;;
8964;SDS011;4517;49.020;12.066;2022-12-29T05:10:26;10.17;;;9.27;;
8964;SDS011;4517;49.020;12.066;2022-12-29T05:12:51;12.00;;;10.70;;
8964;SDS011;4517;49.020;12.066;2022-12-29T05:15:17;11.00;;;9.90;;
8964;SDS011;4517;49.020;12.066;2022-12-29T05:17:43;13.33;;;10.00;;
8964;SDS011;4517;49.020;12.066;2022-12-29T05:20:08;11.13;;;10.00;;
8964;SDS011;4517;49.020;12.066;2022-12-29T05:22:35;10.83;;;9.80;;
8964;SDS011;4517;49.020;12.066;2022-12-29T05:25:00;13.60;;;9.53;;
8964;SDS011;4517;49.020;12.066;2022-12-29T05:27:26;11.33;;;10.20;;
8964;SDS011;4517;49.020;12.066;2022-12-29T05:29:51;10.13;;;9.13;;
8964;SDS011;4517;49.020;12.066;2022-12-29T05:32:17;10.87;;;9.83;;
8964;SDS011;4517;49.020;12.066;2022-12-29T05:34:43;10.60;;;9.70;;
8964;SDS011;4517;49.020;12.066;2022-12-29T05:37:08;12.93;;;10.30;;
8964;SDS011;4517;49.020;12.066;2022-12-29T05:39:34;10.43;;;9.23;;
8964;SDS011;4517;49.020;12.066;2022-12-29T05:41:59;10.37;;;9.37;;
8964;SDS011;4517;49.020;12.066;2022-12-29T05:44:25;10.60;;;9.70;;
8964;SDS011;4517;49.020;12.066;2022-12-29T05:46:50;10.23;;;9.17;;
8964;SDS011;4517;49.020;12.066;2022-12-29T05:49:16;13.30;;;9.83;;
8964;SDS011;4517;49.020;12.066;2022-12-29T05:51:42;12.23;;;9.80;;
8964;SDS011;4517;49.020;12.066;2022-12-29T05:54:07;12.50;;;10.10;;
8964;SDS011;4517;49.020;12.066;2022-12-29T05:56:33;11.50;;;10.30;;
8964;SDS011;4517;49.020;12.066;2022-12-29T05:58:59;9.70;;;8.80;;
8964;SDS011;4517;49.020;12.066;2022-12-29T06:01:25;12.53;;;9.20;;
8964;SDS011;4517;49.020;12.066;2022-12-29T06:03:51;11.87;;;9.23;;
8964;SDS011;4517;49.020;12.066;2022-12-29T06:06:16;11.57;;;10.47;;
8964;SDS011;4517;49.020;12.066;2022-12-29T06:08:42;11.17;;;9.30;;
8964;SDS011;4517;49.020;12.066;2022-12-29T06:11:08;13.43;;;11.43;;
8964;SDS011;4517;49.020;12.066;2022-12-29T06:13:33;8.97;;;8.13;;
8964;SDS011;4517;49.020;12.066;2022-12-29T06:15:59;10.20;;;9.30;;
8964;SDS011;4517;49.020;12.066;2022-12-29T06:18:24;10.00;;;8.83;;
8964;SDS011;4517;49.020;12.066;2022-12-29T06:20:50;12.53;;;9.57;;
8964;SDS011;4517;49.020;12.066;2022-12-29T06:23:15;10.73;;;9.63;;
8964;SDS011;4517;49.020;12.066;2022-12-29T06:25:43;10.57;;;9.37;;
8964;SDS011;4517;49.020;12.066;2022-12-29T06:28:08;13.23;;;9.67;;
8964;SDS011;4517;49.020;12.066;2022-12-29T06:30:35;11.40;;;8.90;;
8964;SDS011;4517;49.020;12.066;2022-12-29T06:33:01;10.30;;;9.10;;
8964;SDS011;4517;49.020;12.066;2022-12-29T06:35:27;9.97;;;9.07;;
8964;SDS011;4517;49.020;12.066;2022-12-29T06:37:52;10.50;;;9.50;;
8964;SDS011;4517;49.020;12.066;2022-12-29T06:40:18;9.73;;;8.23;;
8964;SDS011;4517;49.020;12.066;2022-12-29T06:42:43;9.73;;;8.53;;
8964;SDS011;4517;49.020;12.066;2022-12-29T06:45:09;9.37;;;8.47;;
8964;SDS011;4517;49.020;12.066;2022-12-29T06:47:35;16.73;;;13.07;;
8964;SDS011;4517;49.020;12.066;2022-12-29T06:50:00;9.30;;;8.43;;
8964;SDS011;4517;49.020;12.066;2022-12-29T06:52:26;9.27;;;8.37;;
8964;SDS011;4517;49.020;12.066;2022-12-29T06:54:53;10.60;;;9.13;;
8964;SDS011;4517;49.020;12.066;2022-12-29T06:57:19;11.00;;;9.90;;
8964;SDS011;4517;49.020;12.066;2022-12-29T06:59:45;9.97;;;8.97;;
8964;SDS011;4517;49.020;12.066;2022-12-29T07:02:11;13.00;;;9.57;;
8964;SDS011;4517;49.020;12.066;2022-12-29T07:04:36;10.30;;;9.30;;
8964;SDS011;4517;49.020;12.066;2022-12-29T07:07:02;11.07;;;9.37;;
8964;SDS011;4517;49.020;12.066;2022-12-29T07:09:28;13.63;;;8.87;;
8964;SDS011;4517;49.020;12.066;2022-12-29T07:11:53;11.97;;;9.80;;
8964;SDS011;4517;49.020;12.066;2022-12-29T07:14:19;11.50;;;9.80;;
8964;SDS011;4517;49.020;12.066;2022-12-29T07:16:44;10.17;;;9.10;;
8964;SDS011;4517;49.020;12.066;2022-12-29T07:19:10;11.97;;;9.17;;
8964;SDS011;4517;49.020;12.066;2022-12-29T07:21:35;10.07;;;9.07;;
8964;SDS011;4517;49.020;12.066;2022-12-29T07:24:01;12.20;;;10.03;;
8964;SDS011;4517;49.020;12.066;2022-12-29T07:26:26;10.77;;;9.80;;
8964;SDS011;4517;49.020;12.066;2022-12-29T07:28:52;12.47;;;10.00;;
8964;SDS011;4517;49.020;12.066;2022-12-29T07:31:19;10.43;;;9.23;;
8964;SDS011;4517;49.020;12.066;2022-12-29T07:33:46;11.07;;;9.10;;
8964;SDS011;4517;49.020;12.066;2022-12-29T07:36:12;10.47;;;9.33;;
8964;SDS011;4517;49.020;12.066;2022-12-29T07:38:38;12.23;;;11.13;;
8964;SDS011;4517;49.020;12.066;2022-12-29T07:41:04;11.47;;;10.20;;
8964;SDS011;4517;49.020;12.066;2022-12-29T07:43:30;10.60;;;9.30;;
8964;SDS011;4517;49.020;12.066;2022-12-29T07:45:55;14.43;;;10.30;;
8964;SDS011;4517;49.020;12.066;2022-12-29T07:48:21;10.37;;;9.37;;
8964;SDS011;4517;49.020;12.066;2022-12-29T07:50:46;10.00;;;9.10;;
8964;SDS011;4517;49.020;12.066;2022-12-29T07:53:12;10.73;;;9.63;;
8964;SDS011;4517;49.020;12.066;2022-12-29T07:55:38;11.00;;;9.63;;
8964;SDS011;4517;49.020;12.066;2022-12-29T07:58:04;12.83;;;11.63;;
8964;SDS011;4517;49.020;12.066;2022-12-29T08:00:30;10.73;;;9.63;;
8964;SDS011;4517;49.020;12.066;2022-12-29T08:02:55;10.43;;;9.43;;
8964;SDS011;4517;49.020;12.066;2022-12-29T08:05:21;12.70;;;9.73;;
8964;SDS011;4517;49.020;12.066;2022-12-29T08:07:47;10.90;;;9.80;;
8964;SDS011;4517;49.020;12.066;2022-12-29T08:10:12;12.73;;;10.70;;
8964;SDS011;4517;49.020;12.066;2022-12-29T08:12:39;9.40;;;8.50;;
8964;SDS011;4517;49.020;12.066;2022-12-29T08:15:06;10.13;;;9.10;;
8964;SDS011;4517;49.020;12.066;2022-12-29T08:17:33;12.67;;;9.10;;
8964;SDS011;4517;49.020;12.066;2022-12-29T08:19:59;13.90;;;9.00;;
8964;SDS011;4517;49.020;12.066;2022-12-29T08:22:25;8.63;;;7.63;;
8964;SDS011;4517;49.020;12.066;2022-12-29T08:24:50;10.73;;;9.73;;
8964;SDS011;4517;49.020;12.066;2022-12-29T08:27:16;10.67;;;9.67;;
8964;SDS011;4517;49.020;12.066;2022-12-29T08:29:42;10.97;;;9.87;;
8964;SDS011;4517;49.020;12.066;2022-12-29T08:32:07;9.63;;;8.73;;
8964;SDS011;4517;49.020;12.066;2022-12-29T08:34:33;9.87;;;8.90;;
8964;SDS011;4517;49.020;12.066;2022-12-29T08:36:58;9.60;;;8.60;;
8964;SDS011;4517;49.020;12.066;2022-12-29T08:39:24;11.80;;;10.00;;
8964;SDS011;4517;49.020;12.066;2022-12-29T08:42:08;11.20;;;10.10;;
8964;SDS011;4517;49.020;12.066;2022-12-29T08:44:34;10.23;;;8.90;;
8964;SDS011;4517;49.020;12.066;2022-12-29T08:46:59;13.13;;;9.63;;
8964;SDS011;4517;49.020;12.066;2022-12-29T08:49:25;11.60;;;9.60;;
8964;SDS011;4517;49.020;12.066;2022-12-29T08:51:50;11.23;;;10.10;;
8964;SDS011;4517;49.020;12.066;2022-12-29T08:54:16;9.87;;;8.83;;
8964;SDS011;4517;49.020;12.066;2022-12-29T08:56:41;10.43;;;9.43;;
8964;SDS011;4517;49.020;12.066;2022-12-29T08:59:07;10.70;;;9.80;;
8964;SDS011;4517;49.020;12.066;2022-12-29T09:01:32;10.27;;;9.47;;
8964;SDS011;4517;49.020;12.066;2022-12-29T09:04:01;10.63;;;9.63;;
8964;SDS011;4517;49.020;12.066;2022-12-29T09:06:26;10.03;;;9.13;;
8964;SDS011;4517;49.020;12.066;2022-12-29T09:08:53;11.00;;;9.93;;
8964;SDS011;4517;49.020;12.066;2022-12-29T09:11:20;10.07;;;9.20;;
8964;SDS011;4517;49.020;12.066;2022-12-29T09:13:47;10.27;;;9.37;;
8964;SDS011;4517;49.020;12.066;2022-12-29T09:16:14;10.33;;;9.40;;
8964;SDS011;4517;49.020;12.066;2022-12-29T09:18:40;10.20;;;9.30;;
8964;SDS011;4517;49.020;12.066;2022-12-29T09:21:06;9.90;;;8.90;;
8964;SDS011;4517;49.020;12.066;2022-12-29T09:23:34;8.77;;;7.97;;
8964;SDS011;4517;49.020;12.066;2022-12-29T09:25:59;12.13;;;9.10;;
8964;SDS011;4517;49.020;12.066;2022-12-29T09:28:25;9.17;;;8.27;;
8964;SDS011;4517;49.020;12.066;2022-12-29T09:30:51;9.87;;;8.93;;
8964;SDS011;4517;49.020;12.066;2022-12-29T09:33:17;9.50;;;8.60;;
8964;SDS011;4517;49.020;12.066;2022-12-29T09:35:43;10.70;;;9.80;;
8964;SDS011;4517;49.020;12.066;2022-12-29T09:38:10;11.20;;;8.80;;
8964;SDS011;4517;49.020;12.066;2022-12-29T09:40:37;8.63;;;7.83;;
8964;SDS011;4517;49.020;12.066;2022-12-29T09:46:34;8.80;;;7.90;;
8964;SDS011;4517;49.020;12.066;2022-12-29T09:49:18;8.80;;;8.10;;
8964;SDS011;4517;49.020;12.066;2022-12-29T09:51:54;9.30;;;8.33;;
8964;SDS011;4517;49.020;12.066;2022-12-29T09:54:46;21.50;;;8.37;;
8964;SDS011;4517;49.020;12.066;2022-12-29T09:57:37;9.10;;;8.30;;
8964;SDS011;4517;49.020;12.066;2022-12-29T10:02:40;8.60;;;7.87;;
8964;SDS011;4517;49.020;12.066;2022-12-29T10:05:45;8.27;;;7.60;;
8964;SDS011;4517;49.020;12.066;2022-12-29T10:08:08;8.50;;;7.70;;
8964;SDS011;4517;49.020;12.066;2022-12-29T10:13:54;8.17;;;7.43;;
8964;SDS011;4517;49.020;12.066;2022-12-29T10:16:39;7.77;;;7.17;;
8964;SDS011;4517;49.020;12.066;2022-12-29T10:19:26;8.27;;;7.57;;
8964;SDS011;4517;49.020;12.066;2022-12-29T10:24:48;8.60;;;7.77;;
8964;SDS011;4517;49.020;12.066;2022-12-29T10:27:18;12.00;;;8.00;;
8964;SDS011;4517;49.020;12.066;2022-12-29T10:29:48;9.43;;;8.73;;
8964;SDS011;4517;49.020;12.066;2022-12-29T10:32:29;9.53;;;8.63;;
8964;SDS011;4517;49.020;12.066;2022-12-29T10:35:16;8.60;;;7.80;;
8964;SDS011;4517;49.020;12.066;2022-12-29T10:40:22;9.23;;;8.43;;
8964;SDS011;4517;49.020;12.066;2022-12-29T10:42:53;9.97;;;7.50;;
8964;SDS011;4517;49.020;12.066;2022-12-29T10:45:21;9.33;;;8.27;;
8964;SDS011;4517;49.020;12.066;2022-12-29T10:47:55;8.80;;;7.90;;
8964;SDS011;4517;49.020;12.066;2022-12-29T10:50:25;8.13;;;7.43;;
8964;SDS011;4517;49.020;12.066;2022-12-29T10:52:52;9.30;;;8.50;;
8964;SDS011;4517;49.020;12.066;2022-12-29T10:55:21;8.80;;;8.10;;
8964;SDS011;4517;49.020;12.066;2022-12-29T10:57:52;8.83;;;8.03;;
8964;SDS011;4517;49.020;12.066;2022-12-29T11:00:21;9.30;;;8.30;;
8964;SDS011;4517;49.020;12.066;2022-12-29T11:08:11;8.93;;;8.13;;
8964;SDS011;4517;49.020;12.066;2022-12-29T11:10:41;8.00;;;7.40;;
8964;SDS011;4517;49.020;12.066;2022-12-29T11:13:13;9.13;;;8.20;;
8964;SDS011;4517;49.020;12.066;2022-12-29T11:15:45;21.50;;;13.07;;
8964;SDS011;4517;49.020;12.066;2022-12-29T11:18:19;13.00;;;9.03;;
8964;SDS011;4517;49.020;12.066;2022-12-29T11:20:47;9.43;;;8.53;;
8964;SDS011;4517;49.020;12.066;2022-12-29T11:23:22;9.07;;;8.17;;
8964;SDS011;4517;49.020;12.066;2022-12-29T11:28:42;9.20;;;8.40;;
8964;SDS011;4517;49.020;12.066;2022-12-29T11:31:09;9.60;;;8.53;;
8964;SDS011;4517;49.020;12.066;2022-12-29T11:33:36;8.50;;;7.70;;
8964;SDS011;4517;49.020;12.066;2022-12-29T11:36:19;8.63;;;7.93;;
8964;SDS011;4517;49.020;12.066;2022-12-29T11:38:51;9.93;;;8.80;;
8964;SDS011;4517;49.020;12.066;2022-12-29T11:41:19;10.77;;;8.67;;
8964;SDS011;4517;49.020;12.066;2022-12-29T11:43:56;9.07;;;8.37;;
8964;SDS011;4517;49.020;12.066;2022-12-29T11:46:28;11.40;;;7.77;;
8964;SDS011;4517;49.020;12.066;2022-12-29T11:48:56;9.83;;;8.60;;
8964;SDS011;4517;49.020;12.066;2022-12-29T11:51:45;9.43;;;8.63;;
8964;SDS011;4517;49.020;12.066;2022-12-29T11:56:48;11.40;;;7.80;;
8964;SDS011;4517;49.020;12.066;2022-12-29T11:59:34;7.77;;;7.07;;
8964;SDS011;4517;49.020;12.066;2022-12-29T12:02:21;9.53;;;8.53;;
8964;SDS011;4517;49.020;12.066;2022-12-29T12:05:05;11.30;;;10.27;;
8964;SDS011;4517;49.020;12.066;2022-12-29T12:07:43;9.13;;;8.20;;
8964;SDS011;4517;49.020;12.066;2022-12-29T12:10:14;10.03;;;8.03;;
8964;SDS011;4517;49.020;12.066;2022-12-29T12:12:56;11.10;;;8.07;;
8964;SDS011;4517;49.020;12.066;2022-12-29T12:15:46;8.93;;;8.10;;
8964;SDS011;4517;49.020;12.066;2022-12-29T12:21:08;9.10;;;8.40;;
8964;SDS011;4517;49.020;12.066;2022-12-29T12:24:01;9.07;;;8.27;;
8964;SDS011;4517;49.020;12.066;2022-12-29T12:29:19;9.37;;;8.40;;
8964;SDS011;4517;49.020;12.066;2022-12-29T12:32:11;9.83;;;9.03;;
8964;SDS011;4517;49.020;12.066;2022-12-29T12:34:36;11.87;;;7.60;;
8964;SDS011;4517;49.020;12.066;2022-12-29T12:37:08;8.40;;;7.70;;
8964;SDS011;4517;49.020;12.066;2022-12-29T12:39:49;10.03;;;7.20;;
8964;SDS011;4517;49.020;12.066;2022-12-29T12:56:44;9.87;;;8.87;;
8964;SDS011;4517;49.020;12.066;2022-12-29T13:04:33;9.43;;;8.37;;
8964;SDS011;4517;49.020;12.066;2022-12-29T13:07:22;9.33;;;8.43;;
8964;SDS011;4517;49.020;12.066;2022-12-29T13:10:26;16.70;;;9.70;;
8964;SDS011;4517;49.020;12.066;2022-12-29T13:13:12;12.30;;;8.60;;
8964;SDS011;4517;49.020;12.066;2022-12-29T13:15:51;11.00;;;8.67;;
8964;SDS011;4517;49.020;12.066;2022-12-29T13:24:11;8.67;;;7.87;;
8964;SDS011;4517;49.020;12.066;2022-12-29T13:26:44;9.37;;;8.43;;
8964;SDS011;4517;49.020;12.066;2022-12-29T13:29:14;10.53;;;8.40;;
8964;SDS011;4517;49.020;12.066;2022-12-29T13:34:36;15.60;;;9.03;;
8964;SDS011;4517;49.020;12.066;2022-12-29T13:37:12;20.40;;;10.63;;
8964;SDS011;4517;49.020;12.066;2022-12-29T13:39:46;9.73;;;8.53;;
8964;SDS011;4517;49.020;12.066;2022-12-29T13:42:16;10.60;;;8.40;;
8964;SDS011;4517;49.020;12.066;2022-12-29T13:44:52;8.50;;;7.70;;
8964;SDS011;4517;49.020;12.066;2022-12-29T13:47:27;9.77;;;9.00;;
8964;SDS011;4517;49.020;12.066;2022-12-29T13:50:04;10.27;;;9.37;;
8964;SDS011;4517;49.020;12.066;2022-12-29T13:55:18;10.53;;;9.53;;
8964;SDS011;4517;49.020;12.066;2022-12-29T14:00:20;8.00;;;7.20;;
8964;SDS011;4517;49.020;12.066;2022-12-29T14:05:45;11.40;;;9.53;;
8964;SDS011;4517;49.020;12.066;2022-12-29T14:08:35;10.63;;;9.50;;
8964;SDS011;4517;49.020;12.066;2022-12-29T14:11:05;10.40;;;9.30;;
8964;SDS011;4517;49.020;12.066;2022-12-29T14:13:36;10.80;;;9.10;;
8964;SDS011;4517;49.020;12.066;2022-12-29T14:16:04;12.00;;;9.03;;
8964;SDS011;4517;49.020;12.066;2022-12-29T14:18:34;9.27;;;8.37;;
8964;SDS011;4517;49.020;12.066;2022-12-29T14:23:42;10.10;;;9.13;;
8964;SDS011;4517;49.020;12.066;2022-12-29T14:26:14;10.07;;;8.90;;
8964;SDS011;4517;49.020;12.066;2022-12-29T14:28:55;9.00;;;8.20;;
8964;SDS011;4517;49.020;12.066;2022-12-29T14:36:37;9.23;;;8.30;;
8964;SDS011;4517;49.020;12.066;2022-12-29T14:39:04;11.00;;;8.80;;
8964;SDS011;4517;49.020;12.066;2022-12-29T14:41:59;14.30;;;9.43;;
8964;SDS011;4517;49.020;12.066;2022-12-29T14:44:26;10.93;;;8.17;;
8964;SDS011;4517;49.020;12.066;2022-12-29T14:49:21;11.97;;;9.70;;
8964;SDS011;4517;49.020;12.066;2022-12-29T14:51:53;13.27;;;11.90;;
8964;SDS011;4517;49.020;12.066;2022-12-29T14:57:13;13.37;;;10.33;;
8964;SDS011;4517;49.020;12.066;2022-12-29T15:00:19;11.93;;;10.00;;
8964;SDS011;4517;49.020;12.066;2022-12-29T15:02:49;12.23;;;9.77;;
8964;SDS011;4517;49.020;12.066;2022-12-29T15:05:30;11.03;;;9.10;;
8964;SDS011;4517;49.020;12.066;2022-12-29T15:08:05;10.30;;;9.37;;
8964;SDS011;4517;49.020;12.066;2022-12-29T15:10:42;9.50;;;8.70;;
8964;SDS011;4517;49.020;12.066;2022-12-29T15:13:15;9.20;;;8.40;;
8964;SDS011;4517;49.020;12.066;2022-12-29T15:15:43;9.43;;;8.60;;
8964;SDS011;4517;49.020;12.066;2022-12-29T15:18:28;9.27;;;8.40;;
8964;SDS011;4517;49.020;12.066;2022-12-29T15:20:57;7.90;;;7.10;;
8964;SDS011;4517;49.020;12.066;2022-12-29T15:23:24;9.60;;;7.67;;
8964;SDS011;4517;49.020;12.066;2022-12-29T15:25:53;7.60;;;7.00;;
8964;SDS011;4517;49.020;12.066;2022-12-29T15:28:19;8.23;;;7.63;;
8964;SDS011;4517;49.020;12.066;2022-12-29T15:30:50;7.47;;;7.07;;
8964;SDS011;4517;49.020;12.066;2022-12-29T15:33:17;11.53;;;6.17;;
8964;SDS011;4517;49.020;12.066;2022-12-29T15:35:44;7.43;;;6.90;;
8964;SDS011;4517;49.020;12.066;2022-12-29T15:38:20;7.57;;;6.83;;
8964;SDS011;4517;49.020;12.066;2022-12-29T15:40:52;6.30;;;5.90;;
8964;SDS011;4517;49.020;12.066;2022-12-29T15:46:31;6.90;;;6.50;;
8964;SDS011;4517;49.020;12.066;2022-12-29T15:48:57;5.67;;;5.37;;
8964;SDS011;4517;49.020;12.066;2022-12-29T15:51:26;8.87;;;8.33;;
8964;SDS011;4517;49.020;12.066;2022-12-29T15:53:55;7.77;;;7.03;;
8964;SDS011;4517;49.020;12.066;2022-12-29T15:56:22;6.90;;;6.40;;
8964;SDS011;4517;49.020;12.066;2022-12-29T15:58:49;6.40;;;5.90;;
8964;SDS011;4517;49.020;12.066;2022-12-29T16:01:23;6.90;;;6.03;;
8964;SDS011;4517;49.020;12.066;2022-12-29T16:04:01;6.90;;;6.20;;
8964;SDS011;4517;49.020;12.066;2022-12-29T16:09:15;6.50;;;6.00;;
8964;SDS011;4517;49.020;12.066;2022-12-29T16:11:44;6.57;;;6.17;;
8964;SDS011;4517;49.020;12.066;2022-12-29T16:14:20;6.80;;;6.17;;
8964;SDS011;4517;49.020;12.066;2022-12-29T16:16:52;6.03;;;5.43;;
8964;SDS011;4517;49.020;12.066;2022-12-29T16:19:24;6.80;;;6.30;;
8964;SDS011;4517;49.020;12.066;2022-12-29T16:21:53;7.63;;;6.87;;
8964;SDS011;4517;49.020;12.066;2022-12-29T16:24:21;7.37;;;6.77;;
8964;SDS011;4517;49.020;12.066;2022-12-29T16:30:03;8.10;;;6.80;;
8964;SDS011;4517;49.020;12.066;2022-12-29T16:32:32;7.30;;;6.60;;
8964;SDS011;4517;49.020;12.066;2022-12-29T16:35:17;7.50;;;6.90;;
8964;SDS011;4517;49.020;12.066;2022-12-29T16:37:43;7.93;;;7.23;;
8964;SDS011;4517;49.020;12.066;2022-12-29T16:40:26;7.87;;;7.07;;
8964;SDS011;4517;49.020;12.066;2022-12-29T16:43:04;7.70;;;7.10;;
8964;SDS011;4517;49.020;12.066;2022-12-29T16:46:06;6.83;;;6.30;;
8964;SDS011;4517;49.020;12.066;2022-12-29T16:48:25;6.53;;;6.00;;
8964;SDS011;4517;49.020;12.066;2022-12-29T16:51:44;9.30;;;7.03;;
8964;SDS011;4517;49.020;12.066;2022-12-29T16:53:55;7.07;;;6.47;;
8964;SDS011;4517;49.020;12.066;2022-12-29T16:56:22;7.47;;;6.77;;
8964;SDS011;4517;49.020;12.066;2022-12-29T16:59:00;6.90;;;6.37;;
8964;SDS011;4517;49.020;12.066;2022-12-29T17:01:26;11.17;;;7.60;;
8964;SDS011;4517;49.020;12.066;2022-12-29T17:03:53;7.47;;;6.87;;
8964;SDS011;4517;49.020;12.066;2022-12-29T17:06:23;7.30;;;6.80;;
8964;SDS011;4517;49.020;12.066;2022-12-29T17:08:49;7.80;;;7.00;;
8964;SDS011;4517;49.020;12.066;2022-12-29T17:11:20;7.10;;;6.53;;
8964;SDS011;4517;49.020;12.066;2022-12-29T17:16:57;8.17;;;7.47;;
8964;SDS011;4517;49.020;12.066;2022-12-29T17:19:28;6.93;;;6.43;;
8964;SDS011;4517;49.020;12.066;2022-12-29T17:21:55;7.07;;;6.57;;
8964;SDS011;4517;49.020;12.066;2022-12-29T17:24:21;6.97;;;6.37;;